createdAt,value
2019-05-03T00:00:13.520Z,0.00
2019-05-03T00:01:13.535Z,0.00
2019-05-03T00:02:13.551Z,0.00
2019-05-03T00:03:13.566Z,0.00
2019-05-03T00:04:13.581Z,0.00
2019-05-03T00:05:13.602Z,0.00
2019-05-03T00:06:13.616Z,0.00
2019-05-03T00:07:13.629Z,0.00
2019-05-03T00:08:13.678Z,0.00
2019-05-03T00:09:13.722Z,0.00
2019-05-03T00:10:13.727Z,0.00
2019-05-03T00:11:13.726Z,0.00
2019-05-03T00:12:13.750Z,0.00
2019-05-03T00:13:13.782Z,0.00
2019-05-03T00:14:13.783Z,0.00
2019-05-03T00:15:13.783Z,0.00
2019-05-03T00:16:13.791Z,0.00
2019-05-03T00:17:13.799Z,0.00
2019-05-03T00:18:13.815Z,0.00
2019-05-03T00:19:13.828Z,0.00
2019-05-03T00:20:13.844Z,0.00
2019-05-03T00:21:13.861Z,0.00
2019-05-03T00:22:13.877Z,0.00
2019-05-03T00:23:13.896Z,0.00
2019-05-03T00:24:13.908Z,0.00
2019-05-03T00:25:13.926Z,0.00
2019-05-03T00:26:13.942Z,0.00
2019-05-03T00:27:13.956Z,0.00
2019-05-03T00:28:13.975Z,0.00
2019-05-03T00:29:13.990Z,0.00
2019-05-03T00:30:14.018Z,0.00
2019-05-03T00:31:14.026Z,0.00
2019-05-03T00:32:14.039Z,0.00
2019-05-03T00:33:14.056Z,0.00
2019-05-03T00:34:14.070Z,0.00
2019-05-03T00:35:14.089Z,0.00
2019-05-03T00:36:14.104Z,0.00
2019-05-03T00:37:14.122Z,0.00
2019-05-03T00:38:14.139Z,0.00
2019-05-03T00:39:14.154Z,0.00
2019-05-03T00:40:14.169Z,0.00
2019-05-03T00:41:14.185Z,0.00
2019-05-03T00:42:14.202Z,0.00
2019-05-03T00:43:14.218Z,0.00
2019-05-03T00:44:14.232Z,0.00
2019-05-03T00:45:14.249Z,0.00
2019-05-03T00:46:14.265Z,0.00
2019-05-03T00:47:14.283Z,0.00
2019-05-03T00:48:14.299Z,0.00
2019-05-03T00:49:14.324Z,0.00
2019-05-03T00:50:14.333Z,0.00
2019-05-03T00:51:14.349Z,0.00
2019-05-03T00:52:14.364Z,0.00
2019-05-03T00:53:14.390Z,0.00
2019-05-03T00:54:14.395Z,0.00
2019-05-03T00:55:16.893Z,0.00
2019-05-03T00:56:14.428Z,0.00
2019-05-03T00:57:14.445Z,0.00
2019-05-03T00:58:14.469Z,0.00
2019-05-03T00:59:14.478Z,0.00
2019-05-03T01:00:14.496Z,0.00
2019-05-03T01:01:14.512Z,0.00
2019-05-03T01:02:14.527Z,0.00
2019-05-03T01:03:14.541Z,0.00
2019-05-03T01:04:14.559Z,0.00
2019-05-03T01:05:14.573Z,0.00
2019-05-03T01:06:14.595Z,0.00
2019-05-03T01:07:14.617Z,0.00
2019-05-03T01:08:14.624Z,0.00
2019-05-03T01:09:14.641Z,0.00
2019-05-03T01:10:14.657Z,0.00
2019-05-03T01:11:14.670Z,0.00
2019-05-03T01:12:14.690Z,0.00
2019-05-03T01:13:14.705Z,0.00
2019-05-03T01:14:14.723Z,0.00
2019-05-03T01:15:14.738Z,0.00
2019-05-03T01:16:14.755Z,0.00
2019-05-03T01:17:14.770Z,0.00
2019-05-03T01:18:14.789Z,0.00
2019-05-03T01:19:14.806Z,0.00
2019-05-03T01:20:14.820Z,0.00
2019-05-03T01:21:14.841Z,0.00
2019-05-03T01:22:14.850Z,0.00
2019-05-03T01:23:14.866Z,0.00
2019-05-03T01:24:14.884Z,0.00
2019-05-03T01:25:14.900Z,0.00
2019-05-03T01:26:14.915Z,0.00
2019-05-03T01:27:14.932Z,0.00
2019-05-03T01:28:14.948Z,0.00
2019-05-03T01:29:14.963Z,0.00
2019-05-03T01:30:14.981Z,0.00
2019-05-03T01:31:14.995Z,0.00
2019-05-03T01:32:15.012Z,0.00
2019-05-03T01:33:15.030Z,0.00
2019-05-03T01:34:15.047Z,0.00
2019-05-03T01:35:15.060Z,0.00
2019-05-03T01:36:15.077Z,0.00
2019-05-03T01:37:15.094Z,0.00
2019-05-03T01:38:15.109Z,0.00
2019-05-03T01:39:15.126Z,0.00
2019-05-03T01:40:15.143Z,0.00
2019-05-03T01:41:15.157Z,0.00
2019-05-03T01:42:15.178Z,0.00
2019-05-03T01:43:15.189Z,0.00
2019-05-03T01:44:15.203Z,0.00
2019-05-03T01:45:15.220Z,0.00
2019-05-03T01:46:15.240Z,0.00
2019-05-03T01:47:15.253Z,0.00
2019-05-03T01:48:15.268Z,0.00
2019-05-03T01:49:15.288Z,0.00
2019-05-03T01:50:15.300Z,0.00
2019-05-03T01:51:15.319Z,0.00
2019-05-03T01:52:15.331Z,0.00
2019-05-03T01:53:15.349Z,0.00
2019-05-03T01:54:15.364Z,0.00
2019-05-03T01:55:16.005Z,0.00
2019-05-03T01:56:15.394Z,0.00
2019-05-03T01:57:15.410Z,0.00
2019-05-03T01:58:15.429Z,0.00
2019-05-03T01:59:15.445Z,0.00
2019-05-03T02:00:15.459Z,0.00
2019-05-03T02:01:15.475Z,0.00
2019-05-03T02:02:15.510Z,0.00
2019-05-03T02:03:15.579Z,0.00
2019-05-03T02:04:15.592Z,0.00
2019-05-03T02:05:15.593Z,0.00
2019-05-03T02:06:15.587Z,0.00
2019-05-03T02:07:15.644Z,0.00
2019-05-03T02:08:15.646Z,0.00
2019-05-03T02:09:15.659Z,0.00
2019-05-03T02:10:15.664Z,0.00
2019-05-03T02:11:15.656Z,0.00
2019-05-03T02:12:15.667Z,0.00
2019-05-03T02:13:15.666Z,0.00
2019-05-03T02:14:15.680Z,0.00
2019-05-03T02:15:15.698Z,0.00
2019-05-03T02:16:15.712Z,0.00
2019-05-03T02:17:15.731Z,0.00
2019-05-03T02:18:15.744Z,0.00
2019-05-03T02:19:15.763Z,0.00
2019-05-03T02:20:15.777Z,0.00
2019-05-03T02:21:15.794Z,0.00
2019-05-03T02:22:15.807Z,0.00
2019-05-03T02:23:15.824Z,0.00
2019-05-03T02:24:15.841Z,0.00
2019-05-03T02:25:15.856Z,0.00
2019-05-03T02:26:15.875Z,0.00
2019-05-03T02:27:15.889Z,0.00
2019-05-03T02:28:15.906Z,0.00
2019-05-03T02:29:15.921Z,0.00
2019-05-03T02:30:15.936Z,0.00
2019-05-03T02:31:15.953Z,0.00
2019-05-03T02:32:15.967Z,0.00
2019-05-03T02:33:15.995Z,0.00
2019-05-03T02:34:15.998Z,0.00
2019-05-03T02:35:16.038Z,0.00
2019-05-03T02:36:16.031Z,0.00
2019-05-03T02:37:16.048Z,0.00
2019-05-03T02:38:16.064Z,0.00
2019-05-03T02:39:16.087Z,0.00
2019-05-03T02:40:16.096Z,0.00
2019-05-03T02:41:16.111Z,0.00
2019-05-03T02:42:16.320Z,0.00
2019-05-03T02:43:16.515Z,0.00
2019-05-03T02:44:16.160Z,0.00
2019-05-03T02:45:16.192Z,0.00
2019-05-03T02:46:16.698Z,0.00
2019-05-03T02:47:16.206Z,0.00
2019-05-03T02:48:16.603Z,0.00
2019-05-03T02:49:16.239Z,0.00
2019-05-03T02:50:16.807Z,0.00
2019-05-03T02:51:16.272Z,0.00
2019-05-03T02:52:16.286Z,0.00
2019-05-03T02:53:16.301Z,0.00
2019-05-03T02:54:16.330Z,0.00
2019-05-03T02:55:16.425Z,0.00
2019-05-03T02:56:22.155Z,0.00
2019-05-03T02:57:16.374Z,0.00
2019-05-03T02:58:16.381Z,0.00
2019-05-03T02:59:16.399Z,0.00
2019-05-03T03:00:16.583Z,0.00
2019-05-03T03:01:16.506Z,0.00
2019-05-03T03:02:16.447Z,0.00
2019-05-03T03:03:16.757Z,0.00
2019-05-03T03:04:16.475Z,0.00
2019-05-03T03:05:16.748Z,0.00
2019-05-03T03:06:16.506Z,0.00
2019-05-03T03:07:16.525Z,0.00
2019-05-03T03:08:16.538Z,0.00
2019-05-03T03:09:16.614Z,0.00
2019-05-03T03:10:16.585Z,0.00
2019-05-03T03:11:16.589Z,0.00
2019-05-03T03:12:16.598Z,0.00
2019-05-03T03:13:16.617Z,0.00
2019-05-03T03:14:16.890Z,0.00
2019-05-03T03:15:16.662Z,0.00
2019-05-03T03:16:20.498Z,0.00
2019-05-03T03:17:16.679Z,0.00
2019-05-03T03:18:16.700Z,0.00
2019-05-03T03:19:16.725Z,0.00
2019-05-03T03:20:16.746Z,0.00
2019-05-03T03:21:16.743Z,0.00
2019-05-03T03:22:16.762Z,0.00
2019-05-03T03:23:18.040Z,0.00
2019-05-03T03:24:17.236Z,0.00
2019-05-03T03:25:17.504Z,5.63
2019-05-03T03:26:32.430Z,5.63
2019-05-03T03:27:16.831Z,5.63
2019-05-03T03:28:16.884Z,5.63
2019-05-03T03:29:16.863Z,5.63
2019-05-03T03:30:17.371Z,5.63
2019-05-03T03:31:17.656Z,5.63
2019-05-03T03:32:18.081Z,5.63
2019-05-03T03:33:17.647Z,11.25
2019-05-03T03:34:18.341Z,11.25
2019-05-03T03:35:20.878Z,11.25
2019-05-03T03:36:50.668Z,11.25
2019-05-03T03:37:16.991Z,11.25
2019-05-03T03:38:17.004Z,16.88
2019-05-03T03:39:17.018Z,16.88
2019-05-03T03:40:17.036Z,16.88
2019-05-03T03:41:17.058Z,16.88
2019-05-03T03:42:17.062Z,16.88
2019-05-03T03:43:17.079Z,22.50
2019-05-03T03:44:17.096Z,22.50
2019-05-03T03:45:17.110Z,22.50
2019-05-03T03:46:17.124Z,22.50
2019-05-03T03:47:17.227Z,28.13
2019-05-03T03:48:17.157Z,28.13
2019-05-03T03:49:17.174Z,28.13
2019-05-03T03:50:17.183Z,28.13
2019-05-03T03:51:17.210Z,28.13
2019-05-03T03:52:17.267Z,33.75
2019-05-03T03:53:17.234Z,33.75
2019-05-03T03:54:17.247Z,33.75
2019-05-03T03:55:17.260Z,33.75
2019-05-03T03:56:17.274Z,39.38
2019-05-03T03:57:17.292Z,39.38
2019-05-03T03:58:22.471Z,39.38
2019-05-03T03:59:17.322Z,45.00
2019-05-03T04:00:17.333Z,45.00
2019-05-03T04:01:17.412Z,50.63
2019-05-03T04:02:17.437Z,50.63
2019-05-03T04:03:17.425Z,56.25
2019-05-03T04:04:17.433Z,61.88
2019-05-03T04:05:17.431Z,61.88
2019-05-03T04:06:17.501Z,67.50
2019-05-03T04:07:17.501Z,73.13
2019-05-03T04:08:17.503Z,78.75
2019-05-03T04:09:17.500Z,84.38
2019-05-03T04:10:17.496Z,84.38
2019-05-03T04:11:17.500Z,90.00
2019-05-03T04:12:17.513Z,90.00
2019-05-03T04:13:17.533Z,90.00
2019-05-03T04:14:17.546Z,90.00
2019-05-03T04:15:17.559Z,90.00
2019-05-03T04:16:20.911Z,95.63
2019-05-03T04:17:17.587Z,95.63
2019-05-03T04:18:17.607Z,95.63
2019-05-03T04:19:17.644Z,101.25
2019-05-03T04:20:17.633Z,106.88
2019-05-03T04:21:17.651Z,112.50
2019-05-03T04:22:17.664Z,118.13
2019-05-03T04:23:17.679Z,123.75
2019-05-03T04:24:17.696Z,129.38
2019-05-03T04:25:17.709Z,135.00
2019-05-03T04:26:17.723Z,135.00
2019-05-03T04:27:23.029Z,140.63
2019-05-03T04:28:17.751Z,146.25
2019-05-03T04:29:17.768Z,146.25
2019-05-03T04:30:17.782Z,151.88
2019-05-03T04:31:17.799Z,163.13
2019-05-03T04:32:17.812Z,157.50
2019-05-03T04:33:17.834Z,157.50
2019-05-03T04:34:17.852Z,163.13
2019-05-03T04:35:17.859Z,163.13
2019-05-03T04:36:17.874Z,163.13
2019-05-03T04:37:17.889Z,163.13
2019-05-03T04:38:17.903Z,163.13
2019-05-03T04:39:20.246Z,163.13
2019-05-03T04:40:17.934Z,163.13
2019-05-03T04:41:17.946Z,174.38
2019-05-03T04:42:17.964Z,180.00
2019-05-03T04:43:17.977Z,185.63
2019-05-03T04:44:17.993Z,196.88
2019-05-03T04:45:18.007Z,213.75
2019-05-03T04:46:18.023Z,219.38
2019-05-03T04:47:18.039Z,219.38
2019-05-03T04:48:18.055Z,219.38
2019-05-03T04:49:18.079Z,219.38
2019-05-03T04:50:18.087Z,225.00
2019-05-03T04:51:18.120Z,230.63
2019-05-03T04:52:18.116Z,230.63
2019-05-03T04:53:18.129Z,230.63
2019-05-03T04:54:18.145Z,230.63
2019-05-03T04:55:18.180Z,225.00
2019-05-03T04:56:18.176Z,219.38
2019-05-03T04:57:35.105Z,219.38
2019-05-03T04:58:18.229Z,225.00
2019-05-03T04:59:18.223Z,236.25
2019-05-03T05:00:18.234Z,241.88
2019-05-03T05:01:18.252Z,247.50
2019-05-03T05:02:18.280Z,258.75
2019-05-03T05:03:18.285Z,258.75
2019-05-03T05:04:18.297Z,258.75
2019-05-03T05:05:18.316Z,253.13
2019-05-03T05:06:18.331Z,241.88
2019-05-03T05:07:18.345Z,225.00
2019-05-03T05:08:18.358Z,213.75
2019-05-03T05:09:18.378Z,202.50
2019-05-03T05:10:18.391Z,202.50
2019-05-03T05:11:18.409Z,202.50
2019-05-03T05:12:18.421Z,202.50
2019-05-03T05:13:18.437Z,202.50
2019-05-03T05:14:18.457Z,202.50
2019-05-03T05:15:18.472Z,208.13
2019-05-03T05:16:18.489Z,213.75
2019-05-03T05:17:18.500Z,213.75
2019-05-03T05:18:18.523Z,213.75
2019-05-03T05:19:18.535Z,219.38
2019-05-03T05:20:18.545Z,225.00
2019-05-03T05:21:18.560Z,230.63
2019-05-03T05:22:18.578Z,230.63
2019-05-03T05:23:18.594Z,230.63
2019-05-03T05:24:18.628Z,230.63
2019-05-03T05:25:18.624Z,230.63
2019-05-03T05:26:18.640Z,230.63
2019-05-03T05:27:18.656Z,225.00
2019-05-03T05:28:18.669Z,219.38
2019-05-03T05:29:18.687Z,213.75
2019-05-03T05:30:18.705Z,213.75
2019-05-03T05:31:18.715Z,213.75
2019-05-03T05:32:18.734Z,213.75
2019-05-03T05:33:18.749Z,225.00
2019-05-03T05:34:18.763Z,230.63
2019-05-03T05:35:18.779Z,219.38
2019-05-03T05:36:18.795Z,230.63
2019-05-03T05:37:18.808Z,236.25
2019-05-03T05:38:18.822Z,264.38
2019-05-03T05:39:18.942Z,253.13
2019-05-03T05:40:18.854Z,236.25
2019-05-03T05:41:18.870Z,219.38
2019-05-03T05:42:18.886Z,219.38
2019-05-03T05:43:18.907Z,225.00
2019-05-03T05:44:18.918Z,230.63
2019-05-03T05:45:18.933Z,230.63
2019-05-03T05:46:18.948Z,225.00
2019-05-03T05:47:18.963Z,241.88
2019-05-03T05:48:18.979Z,247.50
2019-05-03T05:49:18.994Z,258.75
2019-05-03T05:50:19.011Z,236.25
2019-05-03T05:51:19.025Z,241.88
2019-05-03T05:52:19.039Z,241.88
2019-05-03T05:53:19.055Z,230.63
2019-05-03T05:54:19.070Z,236.25
2019-05-03T05:55:19.088Z,264.38
2019-05-03T05:56:19.103Z,292.50
2019-05-03T05:57:19.121Z,247.50
2019-05-03T05:58:19.136Z,236.25
2019-05-03T05:59:19.148Z,247.50
2019-05-03T06:00:19.165Z,258.75
2019-05-03T06:01:19.180Z,281.25
2019-05-03T06:02:19.198Z,292.50
2019-05-03T06:03:19.288Z,286.88
2019-05-03T06:04:19.289Z,281.25
2019-05-03T06:05:19.285Z,281.25
2019-05-03T06:06:19.283Z,303.75
2019-05-03T06:07:19.325Z,315.00
2019-05-03T06:08:19.359Z,298.13
2019-05-03T06:09:19.360Z,309.38
2019-05-03T06:10:19.355Z,326.25
2019-05-03T06:11:19.343Z,315.00
2019-05-03T06:12:19.357Z,315.00
2019-05-03T06:13:19.365Z,315.00
2019-05-03T06:14:19.381Z,320.63
2019-05-03T06:15:19.399Z,511.88
2019-05-03T06:16:19.414Z,399.38
2019-05-03T06:17:19.430Z,416.25
2019-05-03T06:18:19.446Z,703.13
2019-05-03T06:19:19.461Z,894.38
2019-05-03T06:20:19.477Z,1018.13
2019-05-03T06:21:19.495Z,933.75
2019-05-03T06:22:19.509Z,1760.63
2019-05-03T06:23:19.527Z,528.75
2019-05-03T06:24:19.540Z,1935.00
2019-05-03T06:25:19.560Z,1046.25
2019-05-03T06:26:19.580Z,1766.25
2019-05-03T06:27:19.592Z,320.63
2019-05-03T06:28:21.025Z,495.00
2019-05-03T06:29:19.623Z,2070.00
2019-05-03T06:30:19.640Z,2171.25
2019-05-03T06:31:22.507Z,2064.38
2019-05-03T06:32:19.678Z,523.13
2019-05-03T06:33:19.694Z,967.50
2019-05-03T06:34:19.711Z,590.63
2019-05-03T06:35:19.728Z,1974.38
2019-05-03T06:36:19.747Z,1957.50
2019-05-03T06:37:19.769Z,523.13
2019-05-03T06:38:19.783Z,2008.13
2019-05-03T06:39:19.802Z,1968.75
2019-05-03T06:40:19.820Z,1861.88
2019-05-03T06:41:19.839Z,1890.00
2019-05-03T06:42:21.401Z,770.63
2019-05-03T06:43:19.876Z,1068.75
2019-05-03T06:44:24.831Z,635.63
2019-05-03T06:45:19.913Z,641.25
2019-05-03T06:46:25.404Z,1518.75
2019-05-03T06:47:19.952Z,1530.00
2019-05-03T06:48:22.422Z,405.00
2019-05-03T06:49:19.990Z,500.63
2019-05-03T06:50:25.184Z,2295.00
2019-05-03T06:51:20.221Z,765.00
2019-05-03T06:52:24.814Z,866.25
2019-05-03T06:53:20.070Z,450.00
2019-05-03T06:54:20.520Z,416.25
2019-05-03T06:55:20.107Z,388.13
2019-05-03T06:56:25.060Z,399.38
2019-05-03T06:57:20.145Z,495.00
2019-05-03T06:58:30.575Z,1569.38
2019-05-03T06:59:20.185Z,2098.13
2019-05-03T07:00:20.201Z,2199.38
2019-05-03T07:01:20.221Z,2345.63
2019-05-03T07:02:20.242Z,2334.38
2019-05-03T07:03:20.259Z,2250.00
2019-05-03T07:04:20.285Z,528.75
2019-05-03T07:05:20.300Z,731.25
2019-05-03T07:06:33.590Z,489.38
2019-05-03T07:07:20.342Z,500.63
2019-05-03T07:08:20.360Z,2143.13
2019-05-03T07:09:20.380Z,2233.13
2019-05-03T07:10:20.400Z,2154.38
2019-05-03T07:11:20.423Z,2193.75
2019-05-03T07:12:20.442Z,2306.25
2019-05-03T07:13:20.460Z,2328.75
2019-05-03T07:14:20.481Z,2250.00
2019-05-03T07:15:20.501Z,2401.88
2019-05-03T07:16:20.522Z,2570.63
2019-05-03T07:17:20.544Z,2503.13
2019-05-03T07:18:20.565Z,2542.50
2019-05-03T07:19:20.586Z,759.38
2019-05-03T07:20:20.606Z,596.25
2019-05-03T07:21:20.630Z,725.63
2019-05-03T07:22:20.650Z,2671.88
2019-05-03T07:23:20.672Z,2598.75
2019-05-03T07:24:20.700Z,461.25
2019-05-03T07:25:20.713Z,483.75
2019-05-03T07:26:20.737Z,562.50
2019-05-03T07:27:20.754Z,2559.38
2019-05-03T07:28:20.774Z,1839.38
2019-05-03T07:29:20.799Z,2581.88
2019-05-03T07:30:20.818Z,2683.13
2019-05-03T07:31:20.842Z,2655.00
2019-05-03T07:32:20.859Z,2722.50
2019-05-03T07:33:20.882Z,2171.25
2019-05-03T07:34:20.904Z,736.88
2019-05-03T07:35:20.925Z,545.63
2019-05-03T07:36:20.947Z,466.88
2019-05-03T07:37:20.968Z,354.38
2019-05-03T07:38:20.992Z,427.50
2019-05-03T07:39:21.012Z,1361.25
2019-05-03T07:40:21.037Z,2913.75
2019-05-03T07:41:21.054Z,2761.88
2019-05-03T07:42:21.086Z,675.00
2019-05-03T07:43:21.175Z,871.88
2019-05-03T07:44:21.158Z,2913.75
2019-05-03T07:45:21.162Z,675.00
2019-05-03T07:46:21.227Z,489.38
2019-05-03T07:47:21.225Z,646.88
2019-05-03T07:48:21.231Z,2469.38
2019-05-03T07:49:21.233Z,3105.00
2019-05-03T07:50:21.248Z,2621.25
2019-05-03T07:51:21.267Z,641.25
2019-05-03T07:52:21.289Z,421.88
2019-05-03T07:53:21.312Z,545.63
2019-05-03T07:54:21.331Z,2806.88
2019-05-03T07:55:21.352Z,2919.38
2019-05-03T07:56:21.373Z,3003.75
2019-05-03T07:57:21.396Z,3217.50
2019-05-03T07:58:21.416Z,798.75
2019-05-03T07:59:21.440Z,798.75
2019-05-03T08:00:21.468Z,905.63
2019-05-03T08:01:21.481Z,3301.88
2019-05-03T08:02:24.124Z,630.00
2019-05-03T08:03:21.528Z,3121.88
2019-05-03T08:04:21.551Z,1125.00
2019-05-03T08:05:21.570Z,3161.25
2019-05-03T08:06:21.590Z,849.38
2019-05-03T08:07:23.074Z,3240.00
2019-05-03T08:08:21.633Z,1113.75
2019-05-03T08:09:21.663Z,900.00
2019-05-03T08:10:21.679Z,607.50
2019-05-03T08:11:21.700Z,646.88
2019-05-03T08:12:21.731Z,635.63
2019-05-03T08:13:21.753Z,618.75
2019-05-03T08:14:21.765Z,697.50
2019-05-03T08:15:21.789Z,708.75
2019-05-03T08:16:21.807Z,731.25
2019-05-03T08:17:21.829Z,849.38
2019-05-03T08:18:21.860Z,871.88
2019-05-03T08:19:23.606Z,725.63
2019-05-03T08:20:21.893Z,838.13
2019-05-03T08:21:21.913Z,894.38
2019-05-03T08:22:21.935Z,793.13
2019-05-03T08:23:27.559Z,708.75
2019-05-03T08:24:21.980Z,708.75
2019-05-03T08:25:22.010Z,686.25
2019-05-03T08:26:22.020Z,691.88
2019-05-03T08:27:22.039Z,776.25
2019-05-03T08:28:22.060Z,714.38
2019-05-03T08:29:22.077Z,579.38
2019-05-03T08:30:22.101Z,534.38
2019-05-03T08:31:23.997Z,646.88
2019-05-03T08:32:22.140Z,703.13
2019-05-03T08:33:22.162Z,888.75
2019-05-03T08:34:22.189Z,1012.50
2019-05-03T08:35:24.268Z,990.00
2019-05-03T08:36:22.223Z,810.00
2019-05-03T08:37:24.365Z,500.63
2019-05-03T08:38:22.263Z,568.13
2019-05-03T08:39:22.287Z,630.00
2019-05-03T08:40:24.412Z,562.50
2019-05-03T08:41:22.319Z,506.25
2019-05-03T08:42:22.351Z,607.50
2019-05-03T08:43:22.362Z,663.75
2019-05-03T08:44:22.380Z,669.38
2019-05-03T08:45:22.400Z,703.13
2019-05-03T08:46:22.423Z,618.75
2019-05-03T08:47:22.440Z,630.00
2019-05-03T08:48:22.465Z,618.75
2019-05-03T08:49:22.479Z,601.88
2019-05-03T08:50:22.502Z,798.75
2019-05-03T08:51:22.522Z,922.50
2019-05-03T08:52:24.642Z,798.75
2019-05-03T08:53:22.558Z,793.13
2019-05-03T08:54:22.579Z,950.63
2019-05-03T08:55:24.772Z,973.13
2019-05-03T08:56:24.447Z,736.88
2019-05-03T08:57:22.635Z,613.13
2019-05-03T08:58:22.658Z,556.88
2019-05-03T08:59:29.909Z,528.75
2019-05-03T09:00:24.801Z,607.50
2019-05-03T09:01:24.970Z,736.88
2019-05-03T09:02:22.734Z,843.75
2019-05-03T09:03:24.555Z,905.63
2019-05-03T09:04:34.201Z,748.13
2019-05-03T09:05:24.871Z,686.25
2019-05-03T09:06:24.673Z,624.38
2019-05-03T09:07:25.133Z,540.00
2019-05-03T09:08:24.701Z,528.75
2019-05-03T09:09:22.870Z,556.88
2019-05-03T09:10:24.809Z,562.50
2019-05-03T09:11:31.856Z,556.88
2019-05-03T09:12:25.037Z,461.25
2019-05-03T09:13:24.972Z,483.75
2019-05-03T09:14:24.486Z,478.13
2019-05-03T09:15:24.520Z,466.88
2019-05-03T09:16:25.023Z,472.50
2019-05-03T09:17:24.662Z,534.38
2019-05-03T09:18:23.119Z,669.38
2019-05-03T09:19:25.140Z,916.88
2019-05-03T09:20:24.973Z,1080.00
2019-05-03T09:21:25.301Z,916.88
2019-05-03T09:22:25.396Z,748.13
2019-05-03T09:23:23.996Z,810.00
2019-05-03T09:24:24.632Z,939.38
2019-05-03T09:25:24.795Z,990.00
2019-05-03T09:26:26.059Z,928.13
2019-05-03T09:27:24.704Z,911.25
2019-05-03T09:28:25.393Z,877.50
2019-05-03T09:29:25.283Z,939.38
2019-05-03T09:30:24.996Z,995.63
2019-05-03T09:31:24.676Z,978.75
2019-05-03T09:32:25.482Z,933.75
2019-05-03T09:33:24.866Z,939.38
2019-05-03T09:34:25.525Z,860.63
2019-05-03T09:35:32.524Z,810.00
2019-05-03T09:36:25.091Z,804.38
2019-05-03T09:37:25.039Z,821.25
2019-05-03T09:38:25.490Z,815.63
2019-05-03T09:39:24.504Z,759.38
2019-05-03T09:40:24.562Z,731.25
2019-05-03T09:41:25.343Z,731.25
2019-05-03T09:42:24.814Z,736.88
2019-05-03T09:43:25.035Z,742.50
2019-05-03T09:44:24.509Z,731.25
2019-05-03T09:45:24.606Z,630.00
2019-05-03T09:46:26.150Z,669.38
2019-05-03T09:47:25.172Z,793.13
2019-05-03T09:48:25.292Z,1591.88
2019-05-03T09:49:25.210Z,2773.13
2019-05-03T09:50:24.713Z,3763.13
2019-05-03T09:51:25.403Z,3954.38
2019-05-03T09:52:25.029Z,3650.63
2019-05-03T09:53:25.538Z,2441.25
2019-05-03T09:54:25.470Z,2278.13
2019-05-03T09:55:25.360Z,3245.63
2019-05-03T09:56:25.850Z,1164.38
2019-05-03T09:57:24.771Z,663.75
2019-05-03T09:58:26.083Z,534.38
2019-05-03T09:59:25.423Z,478.13
2019-05-03T10:00:24.560Z,489.38
2019-05-03T10:01:25.477Z,568.13
2019-05-03T10:02:24.646Z,691.88
2019-05-03T10:03:23.948Z,849.38
2019-05-03T10:04:25.586Z,2025.00
2019-05-03T10:05:25.478Z,770.63
2019-05-03T10:06:25.088Z,708.75
2019-05-03T10:07:25.839Z,742.50
2019-05-03T10:08:25.493Z,759.38
2019-05-03T10:09:26.079Z,787.50
2019-05-03T10:10:24.786Z,753.75
2019-05-03T10:11:25.472Z,748.13
2019-05-03T10:12:25.508Z,821.25
2019-05-03T10:13:26.901Z,967.50
2019-05-03T10:14:24.183Z,1170.00
2019-05-03T10:15:25.601Z,1440.00
2019-05-03T10:16:24.881Z,2424.38
2019-05-03T10:17:25.217Z,3768.75
2019-05-03T10:18:25.422Z,3706.88
2019-05-03T10:19:34.865Z,1068.75
2019-05-03T10:20:25.220Z,1096.88
2019-05-03T10:21:25.758Z,1321.88
2019-05-03T10:22:25.258Z,1861.88
2019-05-03T10:23:24.787Z,1698.75
2019-05-03T10:24:24.391Z,2998.13
2019-05-03T10:25:24.832Z,2610.00
2019-05-03T10:26:24.627Z,2756.25
2019-05-03T10:27:25.162Z,2536.88
2019-05-03T10:28:25.146Z,1035.00
2019-05-03T10:29:25.098Z,1417.50
2019-05-03T10:30:24.530Z,2171.25
2019-05-03T10:31:25.211Z,2356.88
2019-05-03T10:32:25.366Z,3195.00
2019-05-03T10:33:25.988Z,2880.00
2019-05-03T10:34:24.807Z,2812.50
2019-05-03T10:35:24.719Z,2705.63
2019-05-03T10:36:25.079Z,2885.63
2019-05-03T10:37:24.689Z,2958.75
2019-05-03T10:38:24.730Z,2992.50
2019-05-03T10:39:26.232Z,2660.63
2019-05-03T10:40:24.762Z,1350.00
2019-05-03T10:41:25.063Z,1057.50
2019-05-03T10:42:24.812Z,883.13
2019-05-03T10:43:24.924Z,826.88
2019-05-03T10:44:24.929Z,866.25
2019-05-03T10:45:27.857Z,826.88
2019-05-03T10:46:25.043Z,742.50
2019-05-03T10:47:25.455Z,675.00
2019-05-03T10:48:25.128Z,658.13
2019-05-03T10:49:24.998Z,720.00
2019-05-03T10:50:25.330Z,703.13
2019-05-03T10:51:25.040Z,765.00
2019-05-03T10:52:25.795Z,1861.88
2019-05-03T10:53:25.081Z,708.75
2019-05-03T10:54:25.106Z,697.50
2019-05-03T10:55:25.152Z,843.75
2019-05-03T10:56:26.876Z,2655.00
2019-05-03T10:57:25.175Z,2812.50
2019-05-03T10:58:25.197Z,2823.75
2019-05-03T10:59:25.222Z,3841.88
2019-05-03T11:00:47.736Z,4263.75
2019-05-03T11:01:25.267Z,4578.75
2019-05-03T11:02:25.382Z,4263.75
2019-05-03T11:03:25.313Z,4123.13
2019-05-03T11:04:25.338Z,1456.88
2019-05-03T11:05:25.363Z,1693.13
2019-05-03T11:06:25.558Z,905.63
2019-05-03T11:07:25.659Z,601.88
2019-05-03T11:08:25.437Z,421.88
2019-05-03T11:09:25.872Z,320.63
2019-05-03T11:10:25.486Z,281.25
2019-05-03T11:11:25.882Z,286.88
2019-05-03T11:12:25.571Z,320.63
2019-05-03T11:13:26.412Z,348.75
2019-05-03T11:14:25.644Z,433.13
2019-05-03T11:15:25.916Z,568.13
2019-05-03T11:16:25.642Z,759.38
2019-05-03T11:17:25.764Z,2047.50
2019-05-03T11:18:25.676Z,1305.00
2019-05-03T11:19:25.699Z,2857.50
2019-05-03T11:20:29.109Z,3555.00
2019-05-03T11:21:30.845Z,3465.00
2019-05-03T11:22:25.767Z,3656.25
2019-05-03T11:23:25.790Z,3825.00
2019-05-03T11:24:27.509Z,4066.88
2019-05-03T11:25:25.834Z,3695.63
2019-05-03T11:26:25.873Z,3358.13
2019-05-03T11:27:25.888Z,3268.13
2019-05-03T11:28:25.910Z,3667.50
2019-05-03T11:29:25.934Z,4027.50
2019-05-03T11:30:25.959Z,3886.88
2019-05-03T11:31:25.987Z,3768.75
2019-05-03T11:32:26.014Z,1333.13
2019-05-03T11:33:26.033Z,1158.75
2019-05-03T11:34:26.057Z,1125.00
2019-05-03T11:35:26.083Z,804.38
2019-05-03T11:36:26.107Z,703.13
2019-05-03T11:37:26.132Z,652.50
2019-05-03T11:38:26.175Z,680.63
2019-05-03T11:39:26.183Z,821.25
2019-05-03T11:40:26.205Z,821.25
2019-05-03T11:41:32.509Z,787.50
2019-05-03T11:42:26.256Z,781.88
2019-05-03T11:43:26.279Z,776.25
2019-05-03T11:44:26.305Z,838.13
2019-05-03T11:45:26.327Z,990.00
2019-05-03T11:46:26.351Z,1136.25
2019-05-03T11:47:27.690Z,1181.25
2019-05-03T11:48:26.396Z,1158.75
2019-05-03T11:49:26.420Z,1153.13
2019-05-03T11:50:26.446Z,1209.38
2019-05-03T11:51:26.495Z,3099.38
2019-05-03T11:52:26.493Z,1794.38
2019-05-03T11:53:26.513Z,5000.63
2019-05-03T11:54:26.536Z,2643.75
2019-05-03T11:55:26.969Z,2199.38
2019-05-03T11:56:26.583Z,2953.13
2019-05-03T11:57:26.690Z,4561.88
2019-05-03T11:58:27.303Z,4584.38
2019-05-03T11:59:26.654Z,3875.63
2019-05-03T12:00:26.826Z,4775.63
2019-05-03T12:01:26.709Z,3324.38
2019-05-03T12:02:26.726Z,2773.13
2019-05-03T12:03:26.758Z,1378.13
2019-05-03T12:04:26.851Z,1456.88
2019-05-03T12:05:26.843Z,1530.00
2019-05-03T12:06:26.897Z,1845.00
2019-05-03T12:07:38.529Z,1524.38
2019-05-03T12:08:26.907Z,1366.88
2019-05-03T12:09:26.922Z,1254.38
2019-05-03T12:10:46.238Z,1181.25
2019-05-03T12:11:26.952Z,1192.50
2019-05-03T12:12:29.390Z,5056.88
2019-05-03T12:13:26.997Z,4359.38
2019-05-03T12:14:27.021Z,1760.63
2019-05-03T12:15:27.047Z,5073.75
2019-05-03T12:17:08.842Z,4331.25
2019-05-03T12:17:29.708Z,1271.25
2019-05-03T12:18:27.272Z,810.00
2019-05-03T12:19:31.178Z,703.13
2019-05-03T12:20:28.855Z,781.88
2019-05-03T12:21:28.457Z,2520.00
2019-05-03T12:22:27.738Z,4072.50
2019-05-03T12:23:28.510Z,1490.63
2019-05-03T12:24:27.720Z,1271.25
2019-05-03T12:25:27.805Z,922.50
2019-05-03T12:26:40.352Z,905.63
2019-05-03T12:27:27.343Z,826.88
2019-05-03T12:28:27.370Z,770.63
2019-05-03T12:29:27.392Z,866.25
2019-05-03T12:30:27.837Z,1108.13
2019-05-03T12:31:36.691Z,1012.50
2019-05-03T12:32:27.464Z,1080.00
2019-05-03T12:33:27.490Z,1006.88
2019-05-03T12:34:27.515Z,911.25
2019-05-03T12:35:27.542Z,821.25
2019-05-03T12:36:27.559Z,939.38
2019-05-03T12:37:27.583Z,1057.50